Terminal Aerodrome Forecast
Issued by NWS

Home | Current Version | Previous Version | Graphics & Text | Print | Product List | Glossary On
Versions: 1 2 3 4 5 6 7 8 9 10 11 12 13 14 15 16 17 18 19 20 21 22 23 24 25 26 27 28 29 30 31 32 33 34
667
FTUS43 KBIS 221648 AAA
TAFDIK
TAF AMD
KDIK 221648Z 2217/2312 35007KT 1/4SM SN FG OVC003
      TEMPO 2217/2218 1SM -SN BR OVC003
     FM221800 36014KT P6SM -SN OVC003
     FM222000 02013KT P6SM VCSH OVC010
     FM230200 03007KT P6SM OVC015
     FM231100 07006KT P6SM OVC025=

USA.gov is the U.S. government's official web portal to all federal, state and local government web resources and services.